sensor_id;sensor_type;location;lat;lon;timestamp;temperature;humidity
49218;DHT22;35045;51.194;7.268;2023-08-07T00:00:32;12.00;99.90
49218;DHT22;35045;51.194;7.268;2023-08-07T00:02:58;12.00;99.90
49218;DHT22;35045;51.194;7.268;2023-08-07T00:05:24;12.00;99.90
49218;DHT22;35045;51.194;7.268;2023-08-07T00:07:51;12.00;99.90
49218;DHT22;35045;51.194;7.268;2023-08-07T00:10:17;11.90;99.90
49218;DHT22;35045;51.194;7.268;2023-08-07T00:12:43;11.90;99.90
49218;DHT22;35045;51.194;7.268;2023-08-07T00:15:09;11.90;99.90
49218;DHT22;35045;51.194;7.268;2023-08-07T00:17:36;11.90;99.90
49218;DHT22;35045;51.194;7.268;2023-08-07T00:20:03;11.90;99.90
49218;DHT22;35045;51.194;7.268;2023-08-07T00:22:29;11.90;99.90
49218;DHT22;35045;51.194;7.268;2023-08-07T00:24:55;11.90;99.90
49218;DHT22;35045;51.194;7.268;2023-08-07T00:27:21;11.90;99.90
49218;DHT22;35045;51.194;7.268;2023-08-07T00:29:47;12.00;99.90
49218;DHT22;35045;51.194;7.268;2023-08-07T00:32:13;11.90;99.90
49218;DHT22;35045;51.194;7.268;2023-08-07T00:34:39;11.90;99.90
49218;DHT22;35045;51.194;7.268;2023-08-07T00:37:05;11.90;99.90
49218;DHT22;35045;51.194;7.268;2023-08-07T00:39:31;11.90;99.90
49218;DHT22;35045;51.194;7.268;2023-08-07T00:41:57;11.90;99.90
49218;DHT22;35045;51.194;7.268;2023-08-07T00:44:23;11.90;99.90
49218;DHT22;35045;51.194;7.268;2023-08-07T00:46:49;11.90;99.90
49218;DHT22;35045;51.194;7.268;2023-08-07T00:49:16;11.90;99.90
49218;DHT22;35045;51.194;7.268;2023-08-07T00:51:43;11.90;99.90
49218;DHT22;35045;51.194;7.268;2023-08-07T00:54:10;11.90;99.90
49218;DHT22;35045;51.194;7.268;2023-08-07T00:56:37;11.90;99.90
49218;DHT22;35045;51.194;7.268;2023-08-07T00:59:03;12.00;99.90
49218;DHT22;35045;51.194;7.268;2023-08-07T01:01:29;11.90;99.90
49218;DHT22;35045;51.194;7.268;2023-08-07T01:03:56;11.90;99.90
49218;DHT22;35045;51.194;7.268;2023-08-07T01:06:22;11.90;99.90
49218;DHT22;35045;51.194;7.268;2023-08-07T01:08:48;11.90;99.90
49218;DHT22;35045;51.194;7.268;2023-08-07T01:13:53;11.90;99.90
49218;DHT22;35045;51.194;7.268;2023-08-07T01:16:40;11.90;99.90
49218;DHT22;35045;51.194;7.268;2023-08-07T01:19:11;11.90;99.90
49218;DHT22;35045;51.194;7.268;2023-08-07T01:21:43;11.90;99.90
49218;DHT22;35045;51.194;7.268;2023-08-07T01:24:10;11.80;99.90
49218;DHT22;35045;51.194;7.268;2023-08-07T01:26:36;11.80;99.90
49218;DHT22;35045;51.194;7.268;2023-08-07T01:29:06;11.90;99.90
49218;DHT22;35045;51.194;7.268;2023-08-07T01:31:34;11.90;99.90
49218;DHT22;35045;51.194;7.268;2023-08-07T01:34:04;11.90;99.90
49218;DHT22;35045;51.194;7.268;2023-08-07T01:36:30;11.90;99.90
49218;DHT22;35045;51.194;7.268;2023-08-07T01:38:57;11.80;99.90
49218;DHT22;35045;51.194;7.268;2023-08-07T01:41:24;11.80;99.90
49218;DHT22;35045;51.194;7.268;2023-08-07T01:43:50;11.80;99.90
49218;DHT22;35045;51.194;7.268;2023-08-07T01:46:16;11.80;99.90
49218;DHT22;35045;51.194;7.268;2023-08-07T01:48:42;11.80;99.90
49218;DHT22;35045;51.194;7.268;2023-08-07T01:51:08;11.80;99.90
49218;DHT22;35045;51.194;7.268;2023-08-07T01:53:34;11.80;99.90
49218;DHT22;35045;51.194;7.268;2023-08-07T01:56:00;11.80;99.90
49218;DHT22;35045;51.194;7.268;2023-08-07T01:58:26;11.80;99.90
49218;DHT22;35045;51.194;7.268;2023-08-07T02:00:52;11.80;99.90
49218;DHT22;35045;51.194;7.268;2023-08-07T02:03:19;11.80;99.90
49218;DHT22;35045;51.194;7.268;2023-08-07T02:05:45;11.80;99.90
49218;DHT22;35045;51.194;7.268;2023-08-07T02:08:12;11.80;99.90
49218;DHT22;35045;51.194;7.268;2023-08-07T02:10:38;11.80;99.90
49218;DHT22;35045;51.194;7.268;2023-08-07T02:13:04;11.80;99.90
49218;DHT22;35045;51.194;7.268;2023-08-07T02:15:30;11.80;99.90
49218;DHT22;35045;51.194;7.268;2023-08-07T02:17:56;11.80;99.90
49218;DHT22;35045;51.194;7.268;2023-08-07T02:20:22;11.80;99.90
49218;DHT22;35045;51.194;7.268;2023-08-07T02:22:48;11.80;99.90
49218;DHT22;35045;51.194;7.268;2023-08-07T02:25:14;11.80;99.90
49218;DHT22;35045;51.194;7.268;2023-08-07T02:27:40;11.80;99.90
49218;DHT22;35045;51.194;7.268;2023-08-07T02:30:07;11.80;99.90
49218;DHT22;35045;51.194;7.268;2023-08-07T02:32:33;11.70;99.90
49218;DHT22;35045;51.194;7.268;2023-08-07T02:34:59;11.70;99.90
49218;DHT22;35045;51.194;7.268;2023-08-07T02:37:25;11.70;99.90
49218;DHT22;35045;51.194;7.268;2023-08-07T02:39:51;11.70;99.90
49218;DHT22;35045;51.194;7.268;2023-08-07T02:42:19;11.70;99.90
49218;DHT22;35045;51.194;7.268;2023-08-07T02:44:45;11.70;99.90
49218;DHT22;35045;51.194;7.268;2023-08-07T02:47:11;11.70;99.90
49218;DHT22;35045;51.194;7.268;2023-08-07T02:49:37;11.70;99.90
49218;DHT22;35045;51.194;7.268;2023-08-07T02:52:03;11.60;99.90
49218;DHT22;35045;51.194;7.268;2023-08-07T02:54:29;11.70;99.90
49218;DHT22;35045;51.194;7.268;2023-08-07T02:56:56;11.60;99.90
49218;DHT22;35045;51.194;7.268;2023-08-07T02:59:22;11.60;99.90
49218;DHT22;35045;51.194;7.268;2023-08-07T03:01:49;11.70;99.90
49218;DHT22;35045;51.194;7.268;2023-08-07T03:04:15;11.60;99.90
49218;DHT22;35045;51.194;7.268;2023-08-07T03:06:41;11.60;99.90
49218;DHT22;35045;51.194;7.268;2023-08-07T03:09:07;11.60;99.90
49218;DHT22;35045;51.194;7.268;2023-08-07T03:11:33;11.60;99.90
49218;DHT22;35045;51.194;7.268;2023-08-07T03:13:59;11.60;99.90
49218;DHT22;35045;51.194;7.268;2023-08-07T03:16:25;11.60;99.90
49218;DHT22;35045;51.194;7.268;2023-08-07T03:18:51;11.60;99.90
49218;DHT22;35045;51.194;7.268;2023-08-07T03:21:17;11.60;99.90
49218;DHT22;35045;51.194;7.268;2023-08-07T03:23:43;11.70;99.90
49218;DHT22;35045;51.194;7.268;2023-08-07T03:26:10;11.70;99.90
49218;DHT22;35045;51.194;7.268;2023-08-07T03:28:42;11.60;99.90
49218;DHT22;35045;51.194;7.268;2023-08-07T03:31:12;11.60;99.90
49218;DHT22;35045;51.194;7.268;2023-08-07T03:33:38;11.60;99.90
49218;DHT22;35045;51.194;7.268;2023-08-07T03:36:04;11.70;99.90
49218;DHT22;35045;51.194;7.268;2023-08-07T03:38:30;11.70;99.90
49218;DHT22;35045;51.194;7.268;2023-08-07T03:40:56;11.70;99.90
49218;DHT22;35045;51.194;7.268;2023-08-07T03:43:22;11.70;99.90
49218;DHT22;35045;51.194;7.268;2023-08-07T03:45:53;11.60;99.90
49218;DHT22;35045;51.194;7.268;2023-08-07T03:48:19;11.70;99.90
49218;DHT22;35045;51.194;7.268;2023-08-07T03:50:45;11.70;99.90
49218;DHT22;35045;51.194;7.268;2023-08-07T03:53:11;11.70;99.90
49218;DHT22;35045;51.194;7.268;2023-08-07T03:55:37;11.70;99.90
49218;DHT22;35045;51.194;7.268;2023-08-07T03:58:03;11.80;99.90
49218;DHT22;35045;51.194;7.268;2023-08-07T04:00:29;11.70;99.90
49218;DHT22;35045;51.194;7.268;2023-08-07T04:02:55;11.70;99.90
49218;DHT22;35045;51.194;7.268;2023-08-07T04:05:21;11.70;99.90
49218;DHT22;35045;51.194;7.268;2023-08-07T04:07:47;11.70;99.90
49218;DHT22;35045;51.194;7.268;2023-08-07T04:10:13;11.60;99.90
49218;DHT22;35045;51.194;7.268;2023-08-07T04:12:40;11.60;99.90
49218;DHT22;35045;51.194;7.268;2023-08-07T04:15:06;11.60;99.90
49218;DHT22;35045;51.194;7.268;2023-08-07T04:17:32;11.70;99.90
49218;DHT22;35045;51.194;7.268;2023-08-07T04:19:58;11.60;99.90
49218;DHT22;35045;51.194;7.268;2023-08-07T04:22:24;11.70;99.90
49218;DHT22;35045;51.194;7.268;2023-08-07T04:24:50;11.70;99.90
49218;DHT22;35045;51.194;7.268;2023-08-07T04:27:16;11.70;99.90
49218;DHT22;35045;51.194;7.268;2023-08-07T04:29:42;11.70;99.90
49218;DHT22;35045;51.194;7.268;2023-08-07T04:32:08;11.70;99.90
49218;DHT22;35045;51.194;7.268;2023-08-07T04:34:34;11.70;99.90
49218;DHT22;35045;51.194;7.268;2023-08-07T04:37:01;11.60;99.90
49218;DHT22;35045;51.194;7.268;2023-08-07T04:39:27;11.60;99.90
49218;DHT22;35045;51.194;7.268;2023-08-07T04:41:53;11.70;99.90
49218;DHT22;35045;51.194;7.268;2023-08-07T04:44:19;11.70;99.90
49218;DHT22;35045;51.194;7.268;2023-08-07T04:46:45;11.60;99.90
49218;DHT22;35045;51.194;7.268;2023-08-07T04:49:11;11.60;99.90
49218;DHT22;35045;51.194;7.268;2023-08-07T04:51:37;11.70;99.90
49218;DHT22;35045;51.194;7.268;2023-08-07T04:54:03;11.70;99.90
49218;DHT22;35045;51.194;7.268;2023-08-07T04:56:29;11.70;99.90
49218;DHT22;35045;51.194;7.268;2023-08-07T04:58:57;11.70;99.90
49218;DHT22;35045;51.194;7.268;2023-08-07T05:01:23;11.70;99.90
49218;DHT22;35045;51.194;7.268;2023-08-07T05:03:50;11.60;99.90
49218;DHT22;35045;51.194;7.268;2023-08-07T05:06:16;11.60;99.90
49218;DHT22;35045;51.194;7.268;2023-08-07T05:08:42;11.60;99.90
49218;DHT22;35045;51.194;7.268;2023-08-07T05:11:08;11.60;99.90
49218;DHT22;35045;51.194;7.268;2023-08-07T05:13:34;11.60;99.90
49218;DHT22;35045;51.194;7.268;2023-08-07T05:16:00;11.60;99.90
49218;DHT22;35045;51.194;7.268;2023-08-07T05:18:26;11.60;99.90
49218;DHT22;35045;51.194;7.268;2023-08-07T05:20:52;11.70;99.90
49218;DHT22;35045;51.194;7.268;2023-08-07T05:23:18;11.60;99.90
49218;DHT22;35045;51.194;7.268;2023-08-07T05:25:45;11.60;99.90
49218;DHT22;35045;51.194;7.268;2023-08-07T05:28:13;11.70;99.90
49218;DHT22;35045;51.194;7.268;2023-08-07T05:30:39;11.60;99.90
49218;DHT22;35045;51.194;7.268;2023-08-07T05:33:05;11.60;99.90
49218;DHT22;35045;51.194;7.268;2023-08-07T05:35:31;11.60;99.90
49218;DHT22;35045;51.194;7.268;2023-08-07T05:37:57;11.70;99.90
49218;DHT22;35045;51.194;7.268;2023-08-07T05:40:23;11.70;99.90
49218;DHT22;35045;51.194;7.268;2023-08-07T05:42:49;11.70;99.90
49218;DHT22;35045;51.194;7.268;2023-08-07T05:45:15;11.70;99.90
49218;DHT22;35045;51.194;7.268;2023-08-07T05:47:41;11.70;99.90
49218;DHT22;35045;51.194;7.268;2023-08-07T05:50:08;11.60;99.90
49218;DHT22;35045;51.194;7.268;2023-08-07T05:52:34;11.60;99.90
49218;DHT22;35045;51.194;7.268;2023-08-07T05:55:00;11.60;99.90
49218;DHT22;35045;51.194;7.268;2023-08-07T05:57:26;11.70;99.90
49218;DHT22;35045;51.194;7.268;2023-08-07T05:59:52;11.70;99.90
49218;DHT22;35045;51.194;7.268;2023-08-07T06:02:18;11.60;99.90
49218;DHT22;35045;51.194;7.268;2023-08-07T06:04:45;11.60;99.90
49218;DHT22;35045;51.194;7.268;2023-08-07T06:07:11;11.50;99.90
49218;DHT22;35045;51.194;7.268;2023-08-07T06:09:37;11.50;99.90
49218;DHT22;35045;51.194;7.268;2023-08-07T06:12:03;11.60;99.90
49218;DHT22;35045;51.194;7.268;2023-08-07T06:14:29;11.50;99.90
49218;DHT22;35045;51.194;7.268;2023-08-07T06:16:56;11.60;99.90
49218;DHT22;35045;51.194;7.268;2023-08-07T06:19:23;11.60;99.90
49218;DHT22;35045;51.194;7.268;2023-08-07T06:21:54;11.70;99.90
49218;DHT22;35045;51.194;7.268;2023-08-07T06:24:20;11.60;99.90
49218;DHT22;35045;51.194;7.268;2023-08-07T06:26:46;11.60;99.90
49218;DHT22;35045;51.194;7.268;2023-08-07T06:29:12;11.70;99.90
49218;DHT22;35045;51.194;7.268;2023-08-07T06:31:38;11.60;99.90
49218;DHT22;35045;51.194;7.268;2023-08-07T06:34:05;11.60;99.90
49218;DHT22;35045;51.194;7.268;2023-08-07T06:36:31;11.60;99.90
49218;DHT22;35045;51.194;7.268;2023-08-07T06:38:57;11.70;99.90
49218;DHT22;35045;51.194;7.268;2023-08-07T06:41:23;11.60;99.90
49218;DHT22;35045;51.194;7.268;2023-08-07T06:43:49;11.60;99.90
49218;DHT22;35045;51.194;7.268;2023-08-07T06:46:17;11.60;99.90
49218;DHT22;35045;51.194;7.268;2023-08-07T06:48:44;11.60;99.90
49218;DHT22;35045;51.194;7.268;2023-08-07T06:51:10;11.60;99.90
49218;DHT22;35045;51.194;7.268;2023-08-07T06:53:36;11.60;99.90
49218;DHT22;35045;51.194;7.268;2023-08-07T06:56:02;11.60;99.90
49218;DHT22;35045;51.194;7.268;2023-08-07T06:58:28;11.70;99.90
49218;DHT22;35045;51.194;7.268;2023-08-07T07:00:54;11.70;99.90
49218;DHT22;35045;51.194;7.268;2023-08-07T07:03:20;11.70;99.90
49218;DHT22;35045;51.194;7.268;2023-08-07T07:05:46;11.70;99.90
49218;DHT22;35045;51.194;7.268;2023-08-07T07:08:12;11.80;99.90
49218;DHT22;35045;51.194;7.268;2023-08-07T07:10:38;11.80;99.90
49218;DHT22;35045;51.194;7.268;2023-08-07T07:13:05;11.80;99.90
49218;DHT22;35045;51.194;7.268;2023-08-07T07:15:31;11.80;99.90
49218;DHT22;35045;51.194;7.268;2023-08-07T07:17:57;11.80;99.90
49218;DHT22;35045;51.194;7.268;2023-08-07T07:20:23;11.80;99.90
49218;DHT22;35045;51.194;7.268;2023-08-07T07:22:49;11.80;99.90
49218;DHT22;35045;51.194;7.268;2023-08-07T07:25:15;11.80;99.90
49218;DHT22;35045;51.194;7.268;2023-08-07T07:27:41;11.90;99.90
49218;DHT22;35045;51.194;7.268;2023-08-07T07:30:07;11.90;99.90
49218;DHT22;35045;51.194;7.268;2023-08-07T07:32:33;11.90;99.90
49218;DHT22;35045;51.194;7.268;2023-08-07T07:35:00;11.90;99.90
49218;DHT22;35045;51.194;7.268;2023-08-07T07:37:26;11.90;99.90
49218;DHT22;35045;51.194;7.268;2023-08-07T07:39:52;11.90;99.90
49218;DHT22;35045;51.194;7.268;2023-08-07T07:42:18;11.90;99.90
49218;DHT22;35045;51.194;7.268;2023-08-07T07:44:44;12.00;99.90
49218;DHT22;35045;51.194;7.268;2023-08-07T07:47:10;12.00;99.90
49218;DHT22;35045;51.194;7.268;2023-08-07T07:49:38;12.00;99.90
49218;DHT22;35045;51.194;7.268;2023-08-07T07:52:04;12.00;99.90
49218;DHT22;35045;51.194;7.268;2023-08-07T07:54:31;12.00;99.90
49218;DHT22;35045;51.194;7.268;2023-08-07T07:56:57;12.00;99.90
49218;DHT22;35045;51.194;7.268;2023-08-07T07:59:23;12.00;99.90
49218;DHT22;35045;51.194;7.268;2023-08-07T08:01:49;12.00;99.90
49218;DHT22;35045;51.194;7.268;2023-08-07T08:04:15;12.10;99.90
49218;DHT22;35045;51.194;7.268;2023-08-07T08:06:41;12.00;99.90
49218;DHT22;35045;51.194;7.268;2023-08-07T08:09:07;12.10;99.90
49218;DHT22;35045;51.194;7.268;2023-08-07T08:11:35;12.10;99.90
49218;DHT22;35045;51.194;7.268;2023-08-07T08:14:01;12.20;99.90
49218;DHT22;35045;51.194;7.268;2023-08-07T08:16:27;12.20;99.90
49218;DHT22;35045;51.194;7.268;2023-08-07T08:18:53;12.20;99.90
49218;DHT22;35045;51.194;7.268;2023-08-07T08:21:19;12.20;99.90
49218;DHT22;35045;51.194;7.268;2023-08-07T08:23:45;12.20;99.90
49218;DHT22;35045;51.194;7.268;2023-08-07T08:26:11;12.20;99.90
49218;DHT22;35045;51.194;7.268;2023-08-07T08:28:38;12.20;99.90
49218;DHT22;35045;51.194;7.268;2023-08-07T08:31:04;12.20;99.90
49218;DHT22;35045;51.194;7.268;2023-08-07T08:33:30;12.10;99.90
49218;DHT22;35045;51.194;7.268;2023-08-07T08:35:56;12.20;99.90
49218;DHT22;35045;51.194;7.268;2023-08-07T08:38:22;12.20;99.90
49218;DHT22;35045;51.194;7.268;2023-08-07T08:40:50;12.20;99.90
49218;DHT22;35045;51.194;7.268;2023-08-07T08:43:17;12.20;99.90
49218;DHT22;35045;51.194;7.268;2023-08-07T08:45:44;12.10;99.90
49218;DHT22;35045;51.194;7.268;2023-08-07T08:48:11;12.10;99.90
49218;DHT22;35045;51.194;7.268;2023-08-07T08:50:41;12.20;99.90
49218;DHT22;35045;51.194;7.268;2023-08-07T08:53:08;12.20;99.90
49218;DHT22;35045;51.194;7.268;2023-08-07T08:55:36;12.30;99.90
49218;DHT22;35045;51.194;7.268;2023-08-07T08:58:02;12.30;99.90
49218;DHT22;35045;51.194;7.268;2023-08-07T09:00:29;12.40;99.90
49218;DHT22;35045;51.194;7.268;2023-08-07T09:02:56;12.40;99.90
49218;DHT22;35045;51.194;7.268;2023-08-07T09:05:22;12.40;99.90
49218;DHT22;35045;51.194;7.268;2023-08-07T09:07:49;12.50;99.90
49218;DHT22;35045;51.194;7.268;2023-08-07T09:10:15;12.50;99.90
49218;DHT22;35045;51.194;7.268;2023-08-07T09:12:42;12.60;99.90
49218;DHT22;35045;51.194;7.268;2023-08-07T09:15:11;12.60;99.90
49218;DHT22;35045;51.194;7.268;2023-08-07T09:17:40;12.50;99.90
49218;DHT22;35045;51.194;7.268;2023-08-07T09:20:07;12.60;99.90
49218;DHT22;35045;51.194;7.268;2023-08-07T09:22:37;12.60;99.90
49218;DHT22;35045;51.194;7.268;2023-08-07T09:25:03;12.60;99.90
49218;DHT22;35045;51.194;7.268;2023-08-07T09:27:30;12.60;99.90
49218;DHT22;35045;51.194;7.268;2023-08-07T09:29:56;12.70;99.90
49218;DHT22;35045;51.194;7.268;2023-08-07T09:32:23;12.70;99.90
49218;DHT22;35045;51.194;7.268;2023-08-07T09:34:50;12.70;99.90
49218;DHT22;35045;51.194;7.268;2023-08-07T09:37:19;12.80;99.90
49218;DHT22;35045;51.194;7.268;2023-08-07T09:39:45;12.80;99.90
49218;DHT22;35045;51.194;7.268;2023-08-07T09:42:15;12.80;99.90
49218;DHT22;35045;51.194;7.268;2023-08-07T09:44:41;12.90;99.90
49218;DHT22;35045;51.194;7.268;2023-08-07T09:47:11;13.00;99.90
49218;DHT22;35045;51.194;7.268;2023-08-07T09:49:38;13.20;99.90
49218;DHT22;35045;51.194;7.268;2023-08-07T09:52:08;13.40;99.90
49218;DHT22;35045;51.194;7.268;2023-08-07T09:54:34;13.60;99.90
49218;DHT22;35045;51.194;7.268;2023-08-07T09:57:01;13.70;99.90
49218;DHT22;35045;51.194;7.268;2023-08-07T09:59:27;13.60;99.90
49218;DHT22;35045;51.194;7.268;2023-08-07T10:01:54;13.50;99.90
49218;DHT22;35045;51.194;7.268;2023-08-07T10:04:23;13.40;99.90
49218;DHT22;35045;51.194;7.268;2023-08-07T10:06:49;13.30;99.90
49218;DHT22;35045;51.194;7.268;2023-08-07T10:09:15;13.30;99.90
49218;DHT22;35045;51.194;7.268;2023-08-07T10:11:42;13.20;99.90
49218;DHT22;35045;51.194;7.268;2023-08-07T10:14:08;13.10;99.90
49218;DHT22;35045;51.194;7.268;2023-08-07T10:16:34;13.10;99.90
49218;DHT22;35045;51.194;7.268;2023-08-07T10:19:08;13.10;99.90
49218;DHT22;35045;51.194;7.268;2023-08-07T10:21:40;13.10;99.90
49218;DHT22;35045;51.194;7.268;2023-08-07T10:24:07;13.20;99.90
49218;DHT22;35045;51.194;7.268;2023-08-07T10:26:35;13.30;99.90
49218;DHT22;35045;51.194;7.268;2023-08-07T10:29:02;13.40;99.90
49218;DHT22;35045;51.194;7.268;2023-08-07T10:31:28;13.70;99.90
49218;DHT22;35045;51.194;7.268;2023-08-07T10:33:55;13.90;99.90
49218;DHT22;35045;51.194;7.268;2023-08-07T10:36:21;14.10;99.90
49218;DHT22;35045;51.194;7.268;2023-08-07T10:38:50;14.10;99.90
49218;DHT22;35045;51.194;7.268;2023-08-07T10:41:17;14.20;99.90
49218;DHT22;35045;51.194;7.268;2023-08-07T10:43:44;14.10;99.90
49218;DHT22;35045;51.194;7.268;2023-08-07T10:46:11;14.20;99.90
49218;DHT22;35045;51.194;7.268;2023-08-07T10:48:38;14.40;99.90
49218;DHT22;35045;51.194;7.268;2023-08-07T10:51:04;14.60;99.90
49218;DHT22;35045;51.194;7.268;2023-08-07T10:53:42;14.70;99.90
49218;DHT22;35045;51.194;7.268;2023-08-07T10:56:14;14.80;99.90
49218;DHT22;35045;51.194;7.268;2023-08-07T10:58:41;14.90;99.90
49218;DHT22;35045;51.194;7.268;2023-08-07T11:01:24;15.00;99.90
49218;DHT22;35045;51.194;7.268;2023-08-07T11:03:56;15.20;99.90
49218;DHT22;35045;51.194;7.268;2023-08-07T11:06:26;15.10;99.90
49218;DHT22;35045;51.194;7.268;2023-08-07T11:08:53;15.20;99.90
49218;DHT22;35045;51.194;7.268;2023-08-07T11:11:19;15.10;99.90
49218;DHT22;35045;51.194;7.268;2023-08-07T11:13:45;14.90;99.90
49218;DHT22;35045;51.194;7.268;2023-08-07T11:16:11;14.70;99.90
49218;DHT22;35045;51.194;7.268;2023-08-07T11:18:38;14.60;99.90
49218;DHT22;35045;51.194;7.268;2023-08-07T11:21:10;14.70;99.90
49218;DHT22;35045;51.194;7.268;2023-08-07T11:23:37;14.90;99.90
49218;DHT22;35045;51.194;7.268;2023-08-07T11:26:03;15.00;99.90
49218;DHT22;35045;51.194;7.268;2023-08-07T11:28:29;15.10;99.90
49218;DHT22;35045;51.194;7.268;2023-08-07T11:30:56;15.10;99.90
49218;DHT22;35045;51.194;7.268;2023-08-07T11:33:25;15.10;99.90
49218;DHT22;35045;51.194;7.268;2023-08-07T11:35:51;14.90;99.90
49218;DHT22;35045;51.194;7.268;2023-08-07T11:41:02;14.70;99.90
49218;DHT22;35045;51.194;7.268;2023-08-07T11:43:29;14.70;99.90
49218;DHT22;35045;51.194;7.268;2023-08-07T11:45:56;14.80;99.90
49218;DHT22;35045;51.194;7.268;2023-08-07T11:48:26;15.00;99.90
49218;DHT22;35045;51.194;7.268;2023-08-07T11:50:52;15.30;99.90
49218;DHT22;35045;51.194;7.268;2023-08-07T11:53:20;15.60;99.90
49218;DHT22;35045;51.194;7.268;2023-08-07T11:58:19;16.20;99.90
49218;DHT22;35045;51.194;7.268;2023-08-07T12:00:45;16.50;99.90
49218;DHT22;35045;51.194;7.268;2023-08-07T12:03:27;16.80;99.90
49218;DHT22;35045;51.194;7.268;2023-08-07T12:05:57;16.90;99.90
49218;DHT22;35045;51.194;7.268;2023-08-07T12:08:24;17.00;99.90
49218;DHT22;35045;51.194;7.268;2023-08-07T12:10:53;17.20;99.90
49218;DHT22;35045;51.194;7.268;2023-08-07T12:13:20;17.30;99.90
49218;DHT22;35045;51.194;7.268;2023-08-07T12:15:46;17.50;99.90
49218;DHT22;35045;51.194;7.268;2023-08-07T12:18:17;17.40;99.90
49218;DHT22;35045;51.194;7.268;2023-08-07T12:20:43;17.40;99.90
49218;DHT22;35045;51.194;7.268;2023-08-07T12:23:15;17.60;99.90
49218;DHT22;35045;51.194;7.268;2023-08-07T12:25:44;17.80;99.90
49218;DHT22;35045;51.194;7.268;2023-08-07T12:28:10;17.70;99.90
49218;DHT22;35045;51.194;7.268;2023-08-07T12:30:37;17.70;99.90
49218;DHT22;35045;51.194;7.268;2023-08-07T12:33:03;17.70;99.90
49218;DHT22;35045;51.194;7.268;2023-08-07T12:35:30;17.70;99.90
49218;DHT22;35045;51.194;7.268;2023-08-07T12:37:56;17.50;99.90
49218;DHT22;35045;51.194;7.268;2023-08-07T12:40:22;17.50;99.90
49218;DHT22;35045;51.194;7.268;2023-08-07T12:42:51;17.80;99.90
49218;DHT22;35045;51.194;7.268;2023-08-07T12:45:18;18.10;99.90
49218;DHT22;35045;51.194;7.268;2023-08-07T12:48:04;18.30;99.90
49218;DHT22;35045;51.194;7.268;2023-08-07T12:50:31;18.30;99.90
49218;DHT22;35045;51.194;7.268;2023-08-07T12:52:57;18.10;99.90
49218;DHT22;35045;51.194;7.268;2023-08-07T12:55:24;18.00;99.90
49218;DHT22;35045;51.194;7.268;2023-08-07T12:57:50;18.00;99.90
49218;DHT22;35045;51.194;7.268;2023-08-07T13:00:18;17.80;99.90
49218;DHT22;35045;51.194;7.268;2023-08-07T13:02:45;17.90;99.90
49218;DHT22;35045;51.194;7.268;2023-08-07T13:05:11;18.00;99.90
49218;DHT22;35045;51.194;7.268;2023-08-07T13:07:38;18.00;99.90
49218;DHT22;35045;51.194;7.268;2023-08-07T13:10:05;17.80;99.90
49218;DHT22;35045;51.194;7.268;2023-08-07T13:12:35;18.00;99.90
49218;DHT22;35045;51.194;7.268;2023-08-07T13:15:04;17.80;99.90
49218;DHT22;35045;51.194;7.268;2023-08-07T13:17:31;17.90;99.90
49218;DHT22;35045;51.194;7.268;2023-08-07T13:19:58;18.30;99.90
49218;DHT22;35045;51.194;7.268;2023-08-07T13:22:24;18.30;99.90
49218;DHT22;35045;51.194;7.268;2023-08-07T13:24:50;17.90;99.90
49218;DHT22;35045;51.194;7.268;2023-08-07T13:27:16;17.70;99.90
49218;DHT22;35045;51.194;7.268;2023-08-07T13:29:43;17.60;99.90
49218;DHT22;35045;51.194;7.268;2023-08-07T13:32:10;17.50;99.90
49218;DHT22;35045;51.194;7.268;2023-08-07T13:34:36;17.50;99.90
49218;DHT22;35045;51.194;7.268;2023-08-07T13:37:04;17.70;99.90
49218;DHT22;35045;51.194;7.268;2023-08-07T13:39:30;17.90;99.90
49218;DHT22;35045;51.194;7.268;2023-08-07T13:41:56;18.00;99.90
49218;DHT22;35045;51.194;7.268;2023-08-07T13:44:22;18.30;99.90
49218;DHT22;35045;51.194;7.268;2023-08-07T13:46:48;18.30;99.90
49218;DHT22;35045;51.194;7.268;2023-08-07T13:49:14;18.00;99.90
49218;DHT22;35045;51.194;7.268;2023-08-07T13:51:41;17.90;99.90
49218;DHT22;35045;51.194;7.268;2023-08-07T13:54:07;18.00;99.90
49218;DHT22;35045;51.194;7.268;2023-08-07T13:56:33;17.90;99.90
49218;DHT22;35045;51.194;7.268;2023-08-07T13:58:59;18.20;99.90
49218;DHT22;35045;51.194;7.268;2023-08-07T14:01:26;18.40;99.90
49218;DHT22;35045;51.194;7.268;2023-08-07T14:03:53;19.00;99.90
49218;DHT22;35045;51.194;7.268;2023-08-07T14:06:19;19.60;99.80
49218;DHT22;35045;51.194;7.268;2023-08-07T14:08:46;19.60;98.50
49218;DHT22;35045;51.194;7.268;2023-08-07T14:11:12;19.70;98.80
49218;DHT22;35045;51.194;7.268;2023-08-07T14:13:40;20.10;99.20
49218;DHT22;35045;51.194;7.268;2023-08-07T14:16:06;20.10;98.00
49218;DHT22;35045;51.194;7.268;2023-08-07T14:18:33;19.90;97.90
49218;DHT22;35045;51.194;7.268;2023-08-07T14:20:59;19.60;98.50
49218;DHT22;35045;51.194;7.268;2023-08-07T14:23:27;19.50;98.60
49218;DHT22;35045;51.194;7.268;2023-08-07T14:25:55;19.80;98.10
49218;DHT22;35045;51.194;7.268;2023-08-07T14:28:21;20.60;97.90
49218;DHT22;35045;51.194;7.268;2023-08-07T14:30:47;20.90;96.20
49218;DHT22;35045;51.194;7.268;2023-08-07T14:33:13;20.90;95.50
49218;DHT22;35045;51.194;7.268;2023-08-07T14:35:40;21.30;95.80
49218;DHT22;35045;51.194;7.268;2023-08-07T14:38:06;21.90;94.90
49218;DHT22;35045;51.194;7.268;2023-08-07T14:40:34;21.70;94.10
49218;DHT22;35045;51.194;7.268;2023-08-07T14:43:03;21.00;94.60
49218;DHT22;35045;51.194;7.268;2023-08-07T14:45:29;20.30;95.30
49218;DHT22;35045;51.194;7.268;2023-08-07T14:47:55;19.70;95.10
49218;DHT22;35045;51.194;7.268;2023-08-07T14:50:21;19.90;95.20
49218;DHT22;35045;51.194;7.268;2023-08-07T14:52:47;20.20;95.20
49218;DHT22;35045;51.194;7.268;2023-08-07T14:55:13;21.00;95.40
49218;DHT22;35045;51.194;7.268;2023-08-07T14:57:39;21.50;94.50
49218;DHT22;35045;51.194;7.268;2023-08-07T15:00:05;21.90;93.80
49218;DHT22;35045;51.194;7.268;2023-08-07T15:02:32;21.60;93.80
49218;DHT22;35045;51.194;7.268;2023-08-07T15:04:58;21.90;93.70
49218;DHT22;35045;51.194;7.268;2023-08-07T15:07:24;22.50;93.00
49218;DHT22;35045;51.194;7.268;2023-08-07T15:09:50;22.60;93.80
49218;DHT22;35045;51.194;7.268;2023-08-07T15:12:16;22.50;92.20
49218;DHT22;35045;51.194;7.268;2023-08-07T15:14:42;22.00;93.30
49218;DHT22;35045;51.194;7.268;2023-08-07T15:17:08;22.80;92.00
49218;DHT22;35045;51.194;7.268;2023-08-07T15:19:34;23.30;91.70
49218;DHT22;35045;51.194;7.268;2023-08-07T15:22:00;22.20;92.40
49218;DHT22;35045;51.194;7.268;2023-08-07T15:24:26;21.70;93.30
49218;DHT22;35045;51.194;7.268;2023-08-07T15:26:52;21.40;93.50
49218;DHT22;35045;51.194;7.268;2023-08-07T15:29:18;20.60;93.70
49218;DHT22;35045;51.194;7.268;2023-08-07T15:31:45;19.90;95.80
49218;DHT22;35045;51.194;7.268;2023-08-07T15:34:11;20.20;96.40